• Join FlightAware (Why Join?)
  • Login
  • US Flag 
11:16AM EDT


 

Airport Tracker/Info


-or-


 

Live Flight TrackerFlight Track Log ✈ ASH2792 ✈ 26-Jan-2014 ✈ KSDF - KCLT

Flight Track Log - Related Links

Times and Time Zones

All times are in EST time to prevent confusion due to time zone crossing. See the ASH2792 flight status page for this flight to view local times or setup timezone preferences in your user account.

Time Position Orientation Groundspeed Altitude Reporting Facility
EST Latitude Longitude Course Direction KTS MPH feet Rate Location/Type
07:17AM 38.0708 -85.6853 98° East 309 356 5,100  Level Indianapolis Center
07:18AM 38.0667 -85.3822 90° East  Level FlightAware Approximate
07:18AM 38.0717 -85.5733 89° East 324 373 7,400  Level Indianapolis Center
07:19AM 38.0589 -85.2402 103° East  Level FlightAware Approximate
07:19AM 38.0736 -85.4506 89° East 340 391 10,800  Level Indianapolis Center
07:20AM 38.0335 -85.1008 103° East  Level FlightAware Approximate
07:20AM 38.0694 -85.3189 92° East 372 428 12,500  Level Indianapolis Center
07:21AM 38.0170 -84.9691 100° East  Level FlightAware Approximate
07:21AM 37.9894 -85.2286 138° Southeast 388 447 14,000  Level Indianapolis Center
07:22AM 38.0023 -84.8367 98° East  Level FlightAware Approximate
07:22AM 37.8936 -85.1672 153° Southeast 393 452 15,700  Level Indianapolis Center
07:23AM 37.7928 -85.0986 152° Southeast 406 467 17,300 1,800 Climbing Indianapolis Center
07:24AM 37.6867 -85.0286 152° Southeast 426 490 19,400 1,980 Climbing Indianapolis Center
07:25AM 37.5783 -84.9578 153° Southeast 437 503 21,400 2,160 Climbing Indianapolis Center
07:26AM 37.4511 -84.8750 153° Southeast 439 505 23,800 2,160 Climbing Indianapolis Center
07:27AM 37.3411 -84.8047 153° Southeast 442 509 25,800 1,980 Climbing Indianapolis Center
07:28AM 37.2325 -84.7356 153° Southeast 438 504 27,800 1,560 Climbing Indianapolis Center
07:29AM 37.1247 -84.6658 153° Southeast 436 502 29,000 540 Climbing Indianapolis Center
07:30AM 37.0108 -84.5942 153° Southeast 457 526 29,000  Level Indianapolis Center
07:31AM 36.8903 -84.5150 152° Southeast 481 554 29,000  Level Indianapolis Center
07:32AM 36.7664 -84.4378 153° Southeast 490 564 29,100  Climbing Indianapolis Center
07:33AM 36.6475 -84.3619 153° Southeast 484 557 29,000 -60 Descending Indianapolis Center
07:34AM 36.5297 -84.2869 153° Southeast 480 552 29,000  Level Indianapolis Center
07:35AM 36.4114 -84.2114 153° Southeast 475 547 29,000  Level Indianapolis Center
07:36AM 36.2919 -84.1375 153° Southeast 476 548 29,000  Level Indianapolis Center
07:37AM 36.1711 -84.0614 153° Southeast 480 552 29,000  Level Indianapolis Center
07:38AM 36.0511 -83.9864 153° Southeast 480 552 29,000  Level Indianapolis Center
07:39AM 35.9375 -83.8983 148° Southeast 490 564 29,000  Level Indianapolis Center
07:40AM 35.9014 -83.7369 105° East 519 597 29,000  Level Indianapolis Center
07:41AM 35.8992 -83.5558 91° East 528 608 29,000  Level Indianapolis Center
07:42AM 35.8939 -83.3742 92° East 530 610 29,000 -120 Level Indianapolis Center
07:43AM 35.8906 -83.1956 91° East 522 601 28,800 -600 Descending Atlanta Center
07:44AM 35.8872 -83.0264 91° East 509 586 27,800 -1,140 Descending Atlanta Center
07:45AM 35.8814 -82.8547 92° East 497 572 26,600 -1,680 Descending Atlanta Center
07:46AM 35.8775 -82.6778 92° East 497 572 24,500 -2,100 Descending Atlanta Center
07:47AM 35.8672 -82.5039 94° East 502 578 22,400 -2,220 Descending Atlanta Center
07:48AM 35.8256 -82.3483 108° East 482 555 20,100 -2,400 Descending Atlanta Center
07:49AM 35.7817 -82.1931 109° East 458 527 17,700 -2,220 Descending Atlanta Center
07:50AM 35.7419 -82.0558 110° East 440 506 15,700 -1,920 Descending Atlanta Center
07:51AM 35.7064 -81.9264 109° East 414 476 13,900 -1,860 Descending Atlanta Center
07:52AM 35.6867 -81.8681 113° Southeast 378 435 13,000 -1,740 Descending Atlanta Center
07:52AM 35.6708 -81.8072 108° East 394 453 12,200 -1,680 Descending Atlanta Center
07:53AM 35.6553 -81.7514 109° East 355 409 11,300 -1,200 Descending Atlanta Center
07:53AM 35.6375 -81.6956 111° Southeast 373 429 11,000 -300 Descending Atlanta Center
07:54AM 35.6197 -81.6347 110° East 339 390 11,000  Level Atlanta Center
07:54AM 35.6039 -81.5842 111° Southeast 345 397 11,000  Level Atlanta Center
07:55AM 35.5761 -81.5442 130° Southeast 329 379 11,000 -300 Level Atlanta Center
07:55AM 35.5542 -81.4939 118° Southeast 327 376 10,700 -840 Descending Atlanta Center
07:56AM 35.5447 -81.4378 102° East 338 389 10,200 -1,020 Descending Atlanta Center
07:56AM 35.5353 -81.3897 104° East 327 376 9,700 -1,200 Descending Atlanta Center
07:57AM 35.5236 -81.3289 103° East 327 376 9,000 -1,320 Descending Atlanta Center
07:57AM 35.5142 -81.2833 104° East 322 371 8,400 -1,500 Descending Atlanta Center
07:58AM 35.5025 -81.2250 104° East 319 367 7,500 -1,500 Descending Atlanta Center
07:58AM 35.4931 -81.1794 104° East 316 364 6,900 -1,500 Descending Atlanta Center
07:59AM 35.4811 -81.1211 104° East 301 346 6,000 -1,740 Descending Atlanta Center
07:59AM 35.4719 -81.0806 106° East 311 358 5,200 -900 Descending Atlanta Center
08:00AM 35.4517 -81.0228 113° Southeast 274 315 5,000 -300 Descending Atlanta Center
08:00AM 35.4367 -81.0056 137° Southeast 290 334 4,900 -120 Descending Atlanta Center
08:01AM 35.4069 -80.9861 152° Southeast 193 222 4,900 -420 Level Atlanta Center
08:01AM 35.3858 -80.9792 165° South 214 246 4,500 -960 Descending Atlanta Center
08:02AM 35.3525 -80.9806 182° South 164 189 3,900 -1,260 Descending Atlanta Center
08:03AM 35.3086 -80.9772 176° South 170 196 2,600 -1,140 Descending Atlanta Center
08:04AM 35.2669 -80.9736 176° South 142 163 1,700 -900 Descending Atlanta Center